sensor_id;sensor_type;location;lat;lon;timestamp;temperature;humidity
27890;DHT22;15238;49.082;9.102;2022-08-19T00:01:42;21.50;99.90
27890;DHT22;15238;49.082;9.102;2022-08-19T00:03:43;21.50;99.90
27890;DHT22;15238;49.082;9.102;2022-08-19T00:05:44;21.60;99.90
27890;DHT22;15238;49.082;9.102;2022-08-19T00:07:45;21.60;99.90
27890;DHT22;15238;49.082;9.102;2022-08-19T00:09:46;21.60;99.90
27890;DHT22;15238;49.082;9.102;2022-08-19T00:11:46;21.60;99.90
27890;DHT22;15238;49.082;9.102;2022-08-19T00:13:47;21.60;99.90
27890;DHT22;15238;49.082;9.102;2022-08-19T00:15:49;21.60;99.90
27890;DHT22;15238;49.082;9.102;2022-08-19T00:17:49;21.60;99.90
27890;DHT22;15238;49.082;9.102;2022-08-19T00:19:50;21.60;99.90
27890;DHT22;15238;49.082;9.102;2022-08-19T00:21:51;21.60;99.90
27890;DHT22;15238;49.082;9.102;2022-08-19T00:23:55;21.60;99.90
27890;DHT22;15238;49.082;9.102;2022-08-19T00:25:58;21.60;99.90
27890;DHT22;15238;49.082;9.102;2022-08-19T00:27:59;21.60;99.90
27890;DHT22;15238;49.082;9.102;2022-08-19T00:30:00;21.60;99.90
27890;DHT22;15238;49.082;9.102;2022-08-19T00:32:02;21.60;99.90
27890;DHT22;15238;49.082;9.102;2022-08-19T00:34:03;21.60;99.90
27890;DHT22;15238;49.082;9.102;2022-08-19T00:36:07;21.60;99.90
27890;DHT22;15238;49.082;9.102;2022-08-19T00:38:08;21.60;99.90
27890;DHT22;15238;49.082;9.102;2022-08-19T00:40:12;21.60;99.90
27890;DHT22;15238;49.082;9.102;2022-08-19T00:42:12;21.60;99.90
27890;DHT22;15238;49.082;9.102;2022-08-19T00:44:24;21.60;99.90
27890;DHT22;15238;49.082;9.102;2022-08-19T00:46:26;21.60;99.90
27890;DHT22;15238;49.082;9.102;2022-08-19T00:48:27;21.60;99.90
27890;DHT22;15238;49.082;9.102;2022-08-19T00:50:27;21.50;99.90
27890;DHT22;15238;49.082;9.102;2022-08-19T00:52:35;21.40;99.90
27890;DHT22;15238;49.082;9.102;2022-08-19T00:54:38;21.40;99.90
27890;DHT22;15238;49.082;9.102;2022-08-19T00:56:39;21.30;99.90
27890;DHT22;15238;49.082;9.102;2022-08-19T00:58:43;21.30;99.90
27890;DHT22;15238;49.082;9.102;2022-08-19T01:00:46;21.30;99.90
27890;DHT22;15238;49.082;9.102;2022-08-19T01:02:47;21.20;99.90
27890;DHT22;15238;49.082;9.102;2022-08-19T01:04:48;21.20;99.90
27890;DHT22;15238;49.082;9.102;2022-08-19T01:06:48;21.10;99.90
27890;DHT22;15238;49.082;9.102;2022-08-19T01:08:49;21.10;99.90
27890;DHT22;15238;49.082;9.102;2022-08-19T01:10:53;21.10;99.90
27890;DHT22;15238;49.082;9.102;2022-08-19T01:12:55;21.10;99.90
27890;DHT22;15238;49.082;9.102;2022-08-19T01:14:56;21.10;99.90
27890;DHT22;15238;49.082;9.102;2022-08-19T01:16:57;21.10;99.90
27890;DHT22;15238;49.082;9.102;2022-08-19T01:19:00;21.10;99.90
27890;DHT22;15238;49.082;9.102;2022-08-19T01:21:08;21.10;99.90
27890;DHT22;15238;49.082;9.102;2022-08-19T01:23:09;21.20;99.90
27890;DHT22;15238;49.082;9.102;2022-08-19T01:25:10;21.10;99.90
27890;DHT22;15238;49.082;9.102;2022-08-19T01:27:12;21.10;99.90
27890;DHT22;15238;49.082;9.102;2022-08-19T01:29:13;21.10;99.90
27890;DHT22;15238;49.082;9.102;2022-08-19T01:31:17;21.10;99.90
27890;DHT22;15238;49.082;9.102;2022-08-19T01:33:19;21.10;99.90
27890;DHT22;15238;49.082;9.102;2022-08-19T01:35:20;21.20;99.90
27890;DHT22;15238;49.082;9.102;2022-08-19T01:37:23;21.10;99.90
27890;DHT22;15238;49.082;9.102;2022-08-19T01:39:25;21.20;99.90
27890;DHT22;15238;49.082;9.102;2022-08-19T01:41:25;21.10;99.90
27890;DHT22;15238;49.082;9.102;2022-08-19T01:43:26;21.10;99.90
27890;DHT22;15238;49.082;9.102;2022-08-19T01:45:29;21.00;99.90
27890;DHT22;15238;49.082;9.102;2022-08-19T01:47:30;20.90;99.90
27890;DHT22;15238;49.082;9.102;2022-08-19T01:49:30;20.90;99.90
27890;DHT22;15238;49.082;9.102;2022-08-19T01:51:31;20.90;99.90
27890;DHT22;15238;49.082;9.102;2022-08-19T01:53:32;20.90;99.90
27890;DHT22;15238;49.082;9.102;2022-08-19T01:55:34;20.90;99.90
27890;DHT22;15238;49.082;9.102;2022-08-19T01:57:41;20.80;99.90
27890;DHT22;15238;49.082;9.102;2022-08-19T01:59:43;20.80;99.90
27890;DHT22;15238;49.082;9.102;2022-08-19T02:01:45;20.80;99.90
27890;DHT22;15238;49.082;9.102;2022-08-19T02:03:45;20.80;99.90
27890;DHT22;15238;49.082;9.102;2022-08-19T02:05:46;20.70;99.90
27890;DHT22;15238;49.082;9.102;2022-08-19T02:07:47;20.70;99.90
27890;DHT22;15238;49.082;9.102;2022-08-19T02:09:48;20.60;99.90
27890;DHT22;15238;49.082;9.102;2022-08-19T02:11:48;20.60;99.90
27890;DHT22;15238;49.082;9.102;2022-08-19T02:13:49;20.60;99.90
27890;DHT22;15238;49.082;9.102;2022-08-19T02:15:50;20.70;99.90
27890;DHT22;15238;49.082;9.102;2022-08-19T02:17:51;20.70;99.90
27890;DHT22;15238;49.082;9.102;2022-08-19T02:19:51;20.70;99.90
27890;DHT22;15238;49.082;9.102;2022-08-19T02:21:52;20.70;99.90
27890;DHT22;15238;49.082;9.102;2022-08-19T02:23:53;20.60;99.90
27890;DHT22;15238;49.082;9.102;2022-08-19T02:25:54;20.60;99.90
27890;DHT22;15238;49.082;9.102;2022-08-19T02:27:54;20.60;99.90
27890;DHT22;15238;49.082;9.102;2022-08-19T02:29:55;20.60;99.90
27890;DHT22;15238;49.082;9.102;2022-08-19T02:31:55;20.60;99.90
27890;DHT22;15238;49.082;9.102;2022-08-19T02:33:56;20.60;99.90
27890;DHT22;15238;49.082;9.102;2022-08-19T02:35:57;20.70;99.90
27890;DHT22;15238;49.082;9.102;2022-08-19T02:37:58;20.70;99.90
27890;DHT22;15238;49.082;9.102;2022-08-19T02:40:17;20.60;99.90
27890;DHT22;15238;49.082;9.102;2022-08-19T02:42:18;20.60;99.90
27890;DHT22;15238;49.082;9.102;2022-08-19T02:44:18;20.60;99.90
27890;DHT22;15238;49.082;9.102;2022-08-19T02:46:32;20.50;99.90
27890;DHT22;15238;49.082;9.102;2022-08-19T02:48:33;20.50;99.90
27890;DHT22;15238;49.082;9.102;2022-08-19T02:50:33;20.40;99.90
27890;DHT22;15238;49.082;9.102;2022-08-19T02:52:37;20.40;99.90
27890;DHT22;15238;49.082;9.102;2022-08-19T02:54:37;20.40;99.90
27890;DHT22;15238;49.082;9.102;2022-08-19T02:56:42;20.30;99.90
27890;DHT22;15238;49.082;9.102;2022-08-19T02:58:43;20.30;99.90
27890;DHT22;15238;49.082;9.102;2022-08-19T03:00:50;20.20;99.90
27890;DHT22;15238;49.082;9.102;2022-08-19T03:02:51;20.30;99.90
27890;DHT22;15238;49.082;9.102;2022-08-19T03:04:51;20.30;99.90
27890;DHT22;15238;49.082;9.102;2022-08-19T03:06:52;20.20;99.90
27890;DHT22;15238;49.082;9.102;2022-08-19T03:08:53;20.20;99.90
27890;DHT22;15238;49.082;9.102;2022-08-19T03:10:53;20.30;99.90
27890;DHT22;15238;49.082;9.102;2022-08-19T03:12:54;20.30;99.90
27890;DHT22;15238;49.082;9.102;2022-08-19T03:14:55;20.30;99.90
27890;DHT22;15238;49.082;9.102;2022-08-19T03:16:56;20.20;99.90
27890;DHT22;15238;49.082;9.102;2022-08-19T03:18:57;20.20;99.90
27890;DHT22;15238;49.082;9.102;2022-08-19T03:21:00;20.20;99.90
27890;DHT22;15238;49.082;9.102;2022-08-19T03:23:00;20.30;99.90
27890;DHT22;15238;49.082;9.102;2022-08-19T03:25:02;20.30;99.90
27890;DHT22;15238;49.082;9.102;2022-08-19T03:27:03;20.20;99.90
27890;DHT22;15238;49.082;9.102;2022-08-19T03:29:05;20.20;99.90
27890;DHT22;15238;49.082;9.102;2022-08-19T03:31:13;20.20;99.90
27890;DHT22;15238;49.082;9.102;2022-08-19T03:33:14;20.10;99.90
27890;DHT22;15238;49.082;9.102;2022-08-19T03:35:14;20.10;99.90
27890;DHT22;15238;49.082;9.102;2022-08-19T03:37:15;20.00;99.90
27890;DHT22;15238;49.082;9.102;2022-08-19T03:39:16;20.00;99.90
27890;DHT22;15238;49.082;9.102;2022-08-19T03:41:20;20.00;99.90
27890;DHT22;15238;49.082;9.102;2022-08-19T03:43:20;19.90;99.90
27890;DHT22;15238;49.082;9.102;2022-08-19T03:45:21;19.90;99.90
27890;DHT22;15238;49.082;9.102;2022-08-19T03:47:21;19.90;99.90
27890;DHT22;15238;49.082;9.102;2022-08-19T03:49:25;19.90;99.90
27890;DHT22;15238;49.082;9.102;2022-08-19T03:51:29;20.00;99.90
27890;DHT22;15238;49.082;9.102;2022-08-19T03:53:34;20.00;99.90
27890;DHT22;15238;49.082;9.102;2022-08-19T03:55:41;20.00;99.90
27890;DHT22;15238;49.082;9.102;2022-08-19T03:57:42;20.00;99.90
27890;DHT22;15238;49.082;9.102;2022-08-19T03:59:42;19.90;99.90
27890;DHT22;15238;49.082;9.102;2022-08-19T04:01:43;19.90;99.90
27890;DHT22;15238;49.082;9.102;2022-08-19T04:03:45;19.90;99.90
27890;DHT22;15238;49.082;9.102;2022-08-19T04:05:46;19.90;99.90
27890;DHT22;15238;49.082;9.102;2022-08-19T04:07:47;19.90;99.90
27890;DHT22;15238;49.082;9.102;2022-08-19T04:09:48;19.80;99.90
27890;DHT22;15238;49.082;9.102;2022-08-19T04:11:52;19.80;99.90
27890;DHT22;15238;49.082;9.102;2022-08-19T04:13:55;19.80;99.90
27890;DHT22;15238;49.082;9.102;2022-08-19T04:15:56;19.80;99.90
27890;DHT22;15238;49.082;9.102;2022-08-19T04:17:57;19.90;99.90
27890;DHT22;15238;49.082;9.102;2022-08-19T04:19:57;19.80;99.90
27890;DHT22;15238;49.082;9.102;2022-08-19T04:21:58;19.90;99.90
27890;DHT22;15238;49.082;9.102;2022-08-19T04:23:58;19.80;99.90
27890;DHT22;15238;49.082;9.102;2022-08-19T04:25:59;19.80;99.90
27890;DHT22;15238;49.082;9.102;2022-08-19T04:28:00;19.80;99.90
27890;DHT22;15238;49.082;9.102;2022-08-19T04:30:00;19.70;99.90
27890;DHT22;15238;49.082;9.102;2022-08-19T04:32:01;19.70;99.90
27890;DHT22;15238;49.082;9.102;2022-08-19T04:34:05;19.60;99.90
27890;DHT22;15238;49.082;9.102;2022-08-19T04:36:06;19.60;99.90
27890;DHT22;15238;49.082;9.102;2022-08-19T04:38:08;19.60;99.90
27890;DHT22;15238;49.082;9.102;2022-08-19T04:40:09;19.60;99.90
27890;DHT22;15238;49.082;9.102;2022-08-19T04:42:28;19.60;99.90
27890;DHT22;15238;49.082;9.102;2022-08-19T04:44:41;19.60;99.90
27890;DHT22;15238;49.082;9.102;2022-08-19T04:46:41;19.60;99.90
27890;DHT22;15238;49.082;9.102;2022-08-19T04:48:42;19.60;99.90
27890;DHT22;15238;49.082;9.102;2022-08-19T04:50:44;19.60;99.90
27890;DHT22;15238;49.082;9.102;2022-08-19T04:52:44;19.60;99.90
27890;DHT22;15238;49.082;9.102;2022-08-19T04:54:45;19.60;99.90
27890;DHT22;15238;49.082;9.102;2022-08-19T04:56:45;19.60;99.90
27890;DHT22;15238;49.082;9.102;2022-08-19T04:58:46;19.60;99.90
27890;DHT22;15238;49.082;9.102;2022-08-19T05:00:47;19.70;99.90
27890;DHT22;15238;49.082;9.102;2022-08-19T05:02:48;19.70;99.90
27890;DHT22;15238;49.082;9.102;2022-08-19T05:04:49;19.70;99.90
27890;DHT22;15238;49.082;9.102;2022-08-19T05:06:50;19.70;99.90
27890;DHT22;15238;49.082;9.102;2022-08-19T05:08:52;19.70;99.90
27890;DHT22;15238;49.082;9.102;2022-08-19T05:10:53;19.80;99.90
27890;DHT22;15238;49.082;9.102;2022-08-19T05:12:53;19.80;99.90
27890;DHT22;15238;49.082;9.102;2022-08-19T05:14:54;19.80;99.90
27890;DHT22;15238;49.082;9.102;2022-08-19T05:16:56;19.80;99.90
27890;DHT22;15238;49.082;9.102;2022-08-19T05:18:57;19.80;99.90
27890;DHT22;15238;49.082;9.102;2022-08-19T05:21:18;19.80;99.90
27890;DHT22;15238;49.082;9.102;2022-08-19T05:23:37;19.80;99.90
27890;DHT22;15238;49.082;9.102;2022-08-19T05:25:40;19.80;99.90
27890;DHT22;15238;49.082;9.102;2022-08-19T05:27:41;19.90;99.90
27890;DHT22;15238;49.082;9.102;2022-08-19T05:29:42;19.90;99.90
27890;DHT22;15238;49.082;9.102;2022-08-19T05:31:43;19.90;99.90
27890;DHT22;15238;49.082;9.102;2022-08-19T05:33:44;19.90;99.90
27890;DHT22;15238;49.082;9.102;2022-08-19T05:35:44;19.90;99.90
27890;DHT22;15238;49.082;9.102;2022-08-19T05:37:46;19.90;99.90
27890;DHT22;15238;49.082;9.102;2022-08-19T05:39:46;19.90;99.90
27890;DHT22;15238;49.082;9.102;2022-08-19T05:41:50;19.90;99.90
27890;DHT22;15238;49.082;9.102;2022-08-19T05:43:51;19.90;99.90
27890;DHT22;15238;49.082;9.102;2022-08-19T05:45:51;20.00;99.90
27890;DHT22;15238;49.082;9.102;2022-08-19T05:47:52;20.00;99.90
27890;DHT22;15238;49.082;9.102;2022-08-19T05:49:52;20.00;99.90
27890;DHT22;15238;49.082;9.102;2022-08-19T05:51:54;19.90;99.90
27890;DHT22;15238;49.082;9.102;2022-08-19T05:53:55;20.00;99.90
27890;DHT22;15238;49.082;9.102;2022-08-19T05:55:56;20.00;99.90
27890;DHT22;15238;49.082;9.102;2022-08-19T05:57:57;20.00;99.90
27890;DHT22;15238;49.082;9.102;2022-08-19T05:59:57;20.00;99.90
27890;DHT22;15238;49.082;9.102;2022-08-19T06:02:00;20.00;99.90
27890;DHT22;15238;49.082;9.102;2022-08-19T06:04:01;20.10;99.90
27890;DHT22;15238;49.082;9.102;2022-08-19T06:06:07;20.10;99.90
27890;DHT22;15238;49.082;9.102;2022-08-19T06:08:08;20.10;99.90
27890;DHT22;15238;49.082;9.102;2022-08-19T06:10:10;20.20;99.90
27890;DHT22;15238;49.082;9.102;2022-08-19T06:12:11;20.20;99.90
27890;DHT22;15238;49.082;9.102;2022-08-19T06:14:16;20.10;99.90
27890;DHT22;15238;49.082;9.102;2022-08-19T06:16:18;20.20;99.90
27890;DHT22;15238;49.082;9.102;2022-08-19T06:18:21;20.20;99.90
27890;DHT22;15238;49.082;9.102;2022-08-19T06:20:22;20.40;99.90
27890;DHT22;15238;49.082;9.102;2022-08-19T06:22:23;20.30;99.90
27890;DHT22;15238;49.082;9.102;2022-08-19T06:24:25;20.30;99.90
27890;DHT22;15238;49.082;9.102;2022-08-19T06:26:29;20.40;99.90
27890;DHT22;15238;49.082;9.102;2022-08-19T06:28:29;20.40;99.90
27890;DHT22;15238;49.082;9.102;2022-08-19T06:30:30;20.40;99.90
27890;DHT22;15238;49.082;9.102;2022-08-19T06:32:31;20.40;99.90
27890;DHT22;15238;49.082;9.102;2022-08-19T06:34:34;20.40;99.90
27890;DHT22;15238;49.082;9.102;2022-08-19T06:36:41;20.50;99.90
27890;DHT22;15238;49.082;9.102;2022-08-19T06:38:44;20.50;99.90
27890;DHT22;15238;49.082;9.102;2022-08-19T06:40:44;20.60;99.90
27890;DHT22;15238;49.082;9.102;2022-08-19T06:42:45;20.60;99.90
27890;DHT22;15238;49.082;9.102;2022-08-19T06:44:47;20.60;99.90
27890;DHT22;15238;49.082;9.102;2022-08-19T06:46:49;20.60;99.90
27890;DHT22;15238;49.082;9.102;2022-08-19T06:48:49;20.60;99.90
27890;DHT22;15238;49.082;9.102;2022-08-19T06:50:50;20.60;99.90
27890;DHT22;15238;49.082;9.102;2022-08-19T06:52:52;20.60;99.90
27890;DHT22;15238;49.082;9.102;2022-08-19T06:54:52;20.70;99.90
27890;DHT22;15238;49.082;9.102;2022-08-19T06:56:55;20.70;99.90
27890;DHT22;15238;49.082;9.102;2022-08-19T06:58:57;20.70;99.90
27890;DHT22;15238;49.082;9.102;2022-08-19T07:01:02;20.70;99.90
27890;DHT22;15238;49.082;9.102;2022-08-19T07:03:03;20.70;99.90
27890;DHT22;15238;49.082;9.102;2022-08-19T07:05:04;20.70;99.90
27890;DHT22;15238;49.082;9.102;2022-08-19T07:07:08;20.70;99.90
27890;DHT22;15238;49.082;9.102;2022-08-19T07:09:14;20.80;99.90
27890;DHT22;15238;49.082;9.102;2022-08-19T07:11:17;20.80;99.90
27890;DHT22;15238;49.082;9.102;2022-08-19T07:13:19;20.90;99.90
27890;DHT22;15238;49.082;9.102;2022-08-19T07:15:19;20.80;99.90
27890;DHT22;15238;49.082;9.102;2022-08-19T07:17:21;20.90;99.90
27890;DHT22;15238;49.082;9.102;2022-08-19T07:19:26;20.90;99.90
27890;DHT22;15238;49.082;9.102;2022-08-19T07:21:28;21.00;99.90
27890;DHT22;15238;49.082;9.102;2022-08-19T07:23:28;21.10;99.90
27890;DHT22;15238;49.082;9.102;2022-08-19T07:25:29;21.20;99.90
27890;DHT22;15238;49.082;9.102;2022-08-19T07:27:30;21.30;99.90
27890;DHT22;15238;49.082;9.102;2022-08-19T07:29:32;21.50;99.90
27890;DHT22;15238;49.082;9.102;2022-08-19T07:31:33;21.70;99.90
27890;DHT22;15238;49.082;9.102;2022-08-19T07:33:37;21.90;99.90
27890;DHT22;15238;49.082;9.102;2022-08-19T07:35:38;22.00;99.90
27890;DHT22;15238;49.082;9.102;2022-08-19T07:37:38;22.10;99.90
27890;DHT22;15238;49.082;9.102;2022-08-19T07:39:44;22.30;99.90
27890;DHT22;15238;49.082;9.102;2022-08-19T07:41:45;22.40;99.90
27890;DHT22;15238;49.082;9.102;2022-08-19T07:43:47;22.50;99.90
27890;DHT22;15238;49.082;9.102;2022-08-19T07:45:47;22.70;99.90
27890;DHT22;15238;49.082;9.102;2022-08-19T07:47:50;22.70;99.90
27890;DHT22;15238;49.082;9.102;2022-08-19T07:49:52;22.60;99.90
27890;DHT22;15238;49.082;9.102;2022-08-19T07:51:59;22.60;99.90
27890;DHT22;15238;49.082;9.102;2022-08-19T07:54:01;22.60;99.90
27890;DHT22;15238;49.082;9.102;2022-08-19T07:56:05;22.60;99.90
27890;DHT22;15238;49.082;9.102;2022-08-19T07:58:06;22.60;99.90
27890;DHT22;15238;49.082;9.102;2022-08-19T08:00:07;22.60;99.90
27890;DHT22;15238;49.082;9.102;2022-08-19T08:02:08;22.60;99.90
27890;DHT22;15238;49.082;9.102;2022-08-19T08:04:09;22.50;99.90
27890;DHT22;15238;49.082;9.102;2022-08-19T08:06:28;22.50;99.90
27890;DHT22;15238;49.082;9.102;2022-08-19T08:08:48;22.40;99.90
27890;DHT22;15238;49.082;9.102;2022-08-19T08:11:07;22.30;99.90
27890;DHT22;15238;49.082;9.102;2022-08-19T08:13:08;22.30;99.90
27890;DHT22;15238;49.082;9.102;2022-08-19T08:15:13;22.20;99.90
27890;DHT22;15238;49.082;9.102;2022-08-19T08:17:19;22.20;99.90
27890;DHT22;15238;49.082;9.102;2022-08-19T08:19:30;22.10;99.90
27890;DHT22;15238;49.082;9.102;2022-08-19T08:21:32;22.20;99.90
27890;DHT22;15238;49.082;9.102;2022-08-19T08:23:33;22.10;99.90
27890;DHT22;15238;49.082;9.102;2022-08-19T08:25:34;22.20;99.90
27890;DHT22;15238;49.082;9.102;2022-08-19T08:27:37;22.20;99.90
27890;DHT22;15238;49.082;9.102;2022-08-19T08:29:39;22.30;99.90
27890;DHT22;15238;49.082;9.102;2022-08-19T08:31:43;22.40;99.90
27890;DHT22;15238;49.082;9.102;2022-08-19T08:33:44;22.40;99.90
27890;DHT22;15238;49.082;9.102;2022-08-19T08:35:45;22.50;99.90
27890;DHT22;15238;49.082;9.102;2022-08-19T08:37:47;22.60;99.90
27890;DHT22;15238;49.082;9.102;2022-08-19T08:39:54;22.60;99.90
27890;DHT22;15238;49.082;9.102;2022-08-19T08:44:05;22.50;99.90
27890;DHT22;15238;49.082;9.102;2022-08-19T08:46:09;22.60;99.90
27890;DHT22;15238;49.082;9.102;2022-08-19T08:50:43;22.70;99.90
27890;DHT22;15238;49.082;9.102;2022-08-19T08:52:48;22.70;99.90
27890;DHT22;15238;49.082;9.102;2022-08-19T08:54:54;22.80;99.90
27890;DHT22;15238;49.082;9.102;2022-08-19T08:56:55;22.80;99.90
27890;DHT22;15238;49.082;9.102;2022-08-19T08:59:07;22.80;99.90
27890;DHT22;15238;49.082;9.102;2022-08-19T09:01:11;22.90;99.90
27890;DHT22;15238;49.082;9.102;2022-08-19T09:05:21;23.00;99.90
27890;DHT22;15238;49.082;9.102;2022-08-19T09:07:43;23.10;99.90
27890;DHT22;15238;49.082;9.102;2022-08-19T09:09:50;23.10;99.90
27890;DHT22;15238;49.082;9.102;2022-08-19T09:12:00;23.20;99.90
27890;DHT22;15238;49.082;9.102;2022-08-19T09:16:28;23.40;99.90
27890;DHT22;15238;49.082;9.102;2022-08-19T09:18:48;23.30;99.90
27890;DHT22;15238;49.082;9.102;2022-08-19T09:20:52;23.50;99.90
27890;DHT22;15238;49.082;9.102;2022-08-19T09:22:53;23.60;99.90
27890;DHT22;15238;49.082;9.102;2022-08-19T09:24:56;23.70;99.90
27890;DHT22;15238;49.082;9.102;2022-08-19T09:26:56;23.80;99.90
27890;DHT22;15238;49.082;9.102;2022-08-19T09:28:57;23.80;99.90
27890;DHT22;15238;49.082;9.102;2022-08-19T09:31:07;23.90;99.90
27890;DHT22;15238;49.082;9.102;2022-08-19T09:33:08;23.90;99.90
27890;DHT22;15238;49.082;9.102;2022-08-19T09:35:09;24.00;99.90
27890;DHT22;15238;49.082;9.102;2022-08-19T09:37:10;23.80;99.90
27890;DHT22;15238;49.082;9.102;2022-08-19T09:39:10;23.70;99.90
27890;DHT22;15238;49.082;9.102;2022-08-19T09:41:14;23.70;99.90
27890;DHT22;15238;49.082;9.102;2022-08-19T09:43:15;23.70;99.90
27890;DHT22;15238;49.082;9.102;2022-08-19T09:45:18;23.70;99.90
27890;DHT22;15238;49.082;9.102;2022-08-19T09:47:21;23.80;99.90
27890;DHT22;15238;49.082;9.102;2022-08-19T09:49:21;23.80;99.90
27890;DHT22;15238;49.082;9.102;2022-08-19T09:51:24;23.80;99.90
27890;DHT22;15238;49.082;9.102;2022-08-19T09:53:26;23.80;99.90
27890;DHT22;15238;49.082;9.102;2022-08-19T09:55:27;23.90;99.90
27890;DHT22;15238;49.082;9.102;2022-08-19T09:57:27;24.00;99.90
27890;DHT22;15238;49.082;9.102;2022-08-19T09:59:28;24.10;99.90
27890;DHT22;15238;49.082;9.102;2022-08-19T10:01:30;24.30;99.90
27890;DHT22;15238;49.082;9.102;2022-08-19T10:03:33;24.20;99.90
27890;DHT22;15238;49.082;9.102;2022-08-19T10:05:33;24.30;99.90
27890;DHT22;15238;49.082;9.102;2022-08-19T10:07:49;24.30;99.90
27890;DHT22;15238;49.082;9.102;2022-08-19T10:09:50;24.40;99.90
27890;DHT22;15238;49.082;9.102;2022-08-19T10:11:51;24.60;99.90
27890;DHT22;15238;49.082;9.102;2022-08-19T10:13:52;24.70;99.90
27890;DHT22;15238;49.082;9.102;2022-08-19T10:15:55;24.70;99.80
27890;DHT22;15238;49.082;9.102;2022-08-19T10:17:56;24.70;99.70
27890;DHT22;15238;49.082;9.102;2022-08-19T10:19:57;24.80;99.60
27890;DHT22;15238;49.082;9.102;2022-08-19T10:21:57;24.60;99.90
27890;DHT22;15238;49.082;9.102;2022-08-19T10:24:01;24.70;99.90
27890;DHT22;15238;49.082;9.102;2022-08-19T10:26:05;24.70;99.90
27890;DHT22;15238;49.082;9.102;2022-08-19T10:28:06;24.50;99.90
27890;DHT22;15238;49.082;9.102;2022-08-19T10:30:08;24.70;99.90
27890;DHT22;15238;49.082;9.102;2022-08-19T10:32:09;24.90;99.90
27890;DHT22;15238;49.082;9.102;2022-08-19T10:34:10;25.00;99.60
27890;DHT22;15238;49.082;9.102;2022-08-19T10:36:14;25.20;99.30
27890;DHT22;15238;49.082;9.102;2022-08-19T10:38:17;25.20;98.90
27890;DHT22;15238;49.082;9.102;2022-08-19T10:40:18;25.30;98.80
27890;DHT22;15238;49.082;9.102;2022-08-19T10:42:19;25.40;98.90
27890;DHT22;15238;49.082;9.102;2022-08-19T10:44:25;25.60;98.40
27890;DHT22;15238;49.082;9.102;2022-08-19T10:46:29;25.70;98.10
27890;DHT22;15238;49.082;9.102;2022-08-19T10:48:33;25.60;98.10
27890;DHT22;15238;49.082;9.102;2022-08-19T10:50:36;25.40;98.10
27890;DHT22;15238;49.082;9.102;2022-08-19T10:53:06;25.40;98.00
27890;DHT22;15238;49.082;9.102;2022-08-19T10:55:08;25.50;98.50
27890;DHT22;15238;49.082;9.102;2022-08-19T10:57:30;25.60;98.30
27890;DHT22;15238;49.082;9.102;2022-08-19T10:59:31;25.80;98.80
27890;DHT22;15238;49.082;9.102;2022-08-19T11:01:33;26.00;98.20
27890;DHT22;15238;49.082;9.102;2022-08-19T11:03:34;26.20;97.20
27890;DHT22;15238;49.082;9.102;2022-08-19T11:05:36;26.30;97.40
27890;DHT22;15238;49.082;9.102;2022-08-19T11:07:39;26.30;97.30
27890;DHT22;15238;49.082;9.102;2022-08-19T11:09:41;26.30;97.40
27890;DHT22;15238;49.082;9.102;2022-08-19T11:11:43;26.30;97.30
27890;DHT22;15238;49.082;9.102;2022-08-19T11:13:44;26.10;97.30
27890;DHT22;15238;49.082;9.102;2022-08-19T11:15:46;26.10;97.10
27890;DHT22;15238;49.082;9.102;2022-08-19T11:17:47;26.00;96.60
27890;DHT22;15238;49.082;9.102;2022-08-19T11:19:48;26.00;96.60
27890;DHT22;15238;49.082;9.102;2022-08-19T11:21:50;25.90;96.40
27890;DHT22;15238;49.082;9.102;2022-08-19T11:23:53;25.70;96.90
27890;DHT22;15238;49.082;9.102;2022-08-19T11:25:54;25.70;97.00
27890;DHT22;15238;49.082;9.102;2022-08-19T11:27:57;25.90;96.50
27890;DHT22;15238;49.082;9.102;2022-08-19T11:29:57;26.00;96.00
27890;DHT22;15238;49.082;9.102;2022-08-19T11:31:58;26.10;96.00
27890;DHT22;15238;49.082;9.102;2022-08-19T11:34:00;26.20;96.00
27890;DHT22;15238;49.082;9.102;2022-08-19T11:36:01;26.30;95.60
27890;DHT22;15238;49.082;9.102;2022-08-19T11:38:02;26.20;95.10
27890;DHT22;15238;49.082;9.102;2022-08-19T11:40:04;26.20;95.20
27890;DHT22;15238;49.082;9.102;2022-08-19T11:42:06;26.10;95.50
27890;DHT22;15238;49.082;9.102;2022-08-19T11:44:27;26.10;95.40
27890;DHT22;15238;49.082;9.102;2022-08-19T11:46:31;26.10;95.20
27890;DHT22;15238;49.082;9.102;2022-08-19T11:48:31;26.00;95.20
27890;DHT22;15238;49.082;9.102;2022-08-19T11:50:32;26.00;95.10
27890;DHT22;15238;49.082;9.102;2022-08-19T11:52:32;26.00;95.00
27890;DHT22;15238;49.082;9.102;2022-08-19T11:54:33;25.90;95.10
27890;DHT22;15238;49.082;9.102;2022-08-19T11:56:33;25.80;95.20
27890;DHT22;15238;49.082;9.102;2022-08-19T11:58:35;25.70;95.40
27890;DHT22;15238;49.082;9.102;2022-08-19T12:00:36;25.60;95.70
27890;DHT22;15238;49.082;9.102;2022-08-19T12:02:36;25.50;95.50
27890;DHT22;15238;49.082;9.102;2022-08-19T12:04:37;25.40;95.80
27890;DHT22;15238;49.082;9.102;2022-08-19T12:06:39;25.40;95.50
27890;DHT22;15238;49.082;9.102;2022-08-19T12:08:41;25.40;95.40
27890;DHT22;15238;49.082;9.102;2022-08-19T12:10:45;25.20;96.10
27890;DHT22;15238;49.082;9.102;2022-08-19T12:12:45;25.00;96.90
27890;DHT22;15238;49.082;9.102;2022-08-19T12:14:46;24.90;97.50
27890;DHT22;15238;49.082;9.102;2022-08-19T12:16:47;24.70;98.60
27890;DHT22;15238;49.082;9.102;2022-08-19T12:18:47;24.60;99.60
27890;DHT22;15238;49.082;9.102;2022-08-19T12:20:51;24.50;99.90
27890;DHT22;15238;49.082;9.102;2022-08-19T12:22:52;24.30;99.90
27890;DHT22;15238;49.082;9.102;2022-08-19T12:24:53;24.10;99.90
27890;DHT22;15238;49.082;9.102;2022-08-19T12:26:54;23.90;99.90
27890;DHT22;15238;49.082;9.102;2022-08-19T12:28:57;23.80;99.90
27890;DHT22;15238;49.082;9.102;2022-08-19T12:30:59;23.80;99.90
27890;DHT22;15238;49.082;9.102;2022-08-19T12:33:00;23.80;99.90
27890;DHT22;15238;49.082;9.102;2022-08-19T12:35:00;23.90;99.90
27890;DHT22;15238;49.082;9.102;2022-08-19T12:37:03;24.10;99.90
27890;DHT22;15238;49.082;9.102;2022-08-19T12:39:04;24.30;99.70
27890;DHT22;15238;49.082;9.102;2022-08-19T12:41:07;24.40;99.90
27890;DHT22;15238;49.082;9.102;2022-08-19T12:43:09;24.60;99.70
27890;DHT22;15238;49.082;9.102;2022-08-19T12:45:13;24.40;99.40
27890;DHT22;15238;49.082;9.102;2022-08-19T12:47:14;24.50;99.60
27890;DHT22;15238;49.082;9.102;2022-08-19T12:49:15;24.50;99.80
27890;DHT22;15238;49.082;9.102;2022-08-19T12:51:17;24.60;99.50
27890;DHT22;15238;49.082;9.102;2022-08-19T12:53:19;24.70;97.60
27890;DHT22;15238;49.082;9.102;2022-08-19T12:55:20;24.80;97.40
27890;DHT22;15238;49.082;9.102;2022-08-19T12:57:25;25.00;97.30
27890;DHT22;15238;49.082;9.102;2022-08-19T12:59:26;25.20;96.60
27890;DHT22;15238;49.082;9.102;2022-08-19T13:01:27;25.40;96.10
27890;DHT22;15238;49.082;9.102;2022-08-19T13:03:30;25.60;95.60